Terminal Aerodrome Forecast
Issued by NWS Sioux Falls, SD

Home | Current Version | Previous Version | Text Only | Print | Product List | Glossary On
Versions: 1 2 3 4 5 6 7 8 9 10 11 12 13
000
FTUS43 KFSD 062323
TAFHON
TAF
KHON 062323Z 0700/0724 21006KT P6SM BKN100
     FM070400 28009KT P6SM BKN070
     FM071500 32010KT P6SM SCT025
     FM071700 31008KT P6SM BKN025=

USA.gov is the U.S. government's official web portal to all federal, state and local government web resources and services.